CZMD

Muskrat Dam Airport

Muskrat Dam, Ontario, Canada
METAR CZMD 171400Z AUTO 24005KT 9SM CLR M21/M22 A3017 RMK SLP249
Observed Flight Rules
Dec-17 @ 14:00 UTC (43 minutes ago) Visual Flight Rules
Wind Visibility Clouds
240° at 5 knots 9 miles
  • Clear skies
Temperatures Readings
Current -21°C / -6°F
Dewpoint -22°C / -8°F
Humidity 92%
Altimeter 30.17" Hg
Pressure 1024.9 hPa
Elevation 278
METAR CZMD 171400Z AUTO 24005KT 9SM CLR M21/M22 A3017 RMK SLP249
Observed Flight Rules
Dec-17 @ 14:00 UTC
(43 minutes ago)
VFR
Wind Visibility
240° at 5 knots 9 miles
Clouds
  • Clear skies
Temperature Dewpoint
-21°C / -6°F -22°C / -8°F
Humidity Altimeter Pressure
92% 30.17" Hg 1024.9 hPa